Time;durP1;ratioP1;P1;durP2;ratioP2;P2;SDS_P1;SDS_P2;PMS_P1;PMS_P2;Temp;Humidity;BMP_temperature;BMP_pressure;BME280_temperature;BME280_humidity;BME280_pressure;Samples;Min_cycle;Max_cycle;Signal;HPM_P1;HPM_P2
2023/05/25 00:00:11;;;;;;;15.00;8.80;;;13.90;99.90;13.00;100769;;;;572797;246;24102;-79
2023/05/25 00:02:39;;;;;;;13.40;9.10;;;13.60;99.90;13.00;100766;;;;572591;246;24106;-79
2023/05/25 00:05:11;;;;;;;14.70;8.10;;;13.80;99.90;12.90;100760;;;;572501;246;24094;-79
2023/05/25 00:07:35;;;;;;;11.70;8.73;;;13.20;99.90;12.90;100773;;;;572387;246;24149;-79
2023/05/25 00:10:03;;;;;;;12.87;8.73;;;13.60;99.90;12.90;100765;;;;572497;246;24079;-79
2023/05/25 00:12:35;;;;;;;15.33;9.63;;;13.30;99.90;12.80;100765;;;;581127;247;24087;-79
2023/05/25 00:15:02;;;;;;;17.37;8.17;;;12.80;99.90;12.70;100760;;;;571767;247;24114;-79
2023/05/25 00:17:30;;;;;;;19.93;13.60;;;12.70;99.90;12.70;100766;;;;567547;247;37774;-79
2023/05/25 00:19:56;;;;;;;15.07;10.03;;;13.30;99.90;12.60;100760;;;;572170;247;24129;-78
2023/05/25 00:22:27;;;;;;;14.30;9.53;;;12.90;99.90;12.50;100763;;;;572116;247;24101;-79
2023/05/25 00:24:52;;;;;;;10.80;8.13;;;13.40;99.90;12.50;100764;;;;572371;247;24079;-79
2023/05/25 00:27:20;;;;;;;13.33;9.17;;;13.10;99.90;12.40;100760;;;;572675;247;24076;-79
2023/05/25 00:29:49;;;;;;;15.37;9.60;;;13.00;99.90;12.40;100755;;;;572484;247;24065;-79
2023/05/25 00:32:17;;;;;;;10.83;8.30;;;13.00;99.90;12.40;100759;;;;572375;247;24072;-80
2023/05/25 00:34:46;;;;;;;11.70;8.77;;;13.00;99.90;12.30;100757;;;;570392;247;24150;-79
2023/05/25 00:37:14;;;;;;;15.80;9.83;;;13.10;99.90;12.30;100766;;;;572303;247;24084;-80
2023/05/25 00:39:41;;;;;;;16.03;9.20;;;12.60;99.90;12.30;100761;;;;581169;247;24101;-79
2023/05/25 00:44:49;;;;;;;15.30;9.13;;;13.00;99.90;12.40;100767;;;;581384;247;24309;-79
2023/05/25 00:47:18;;;;;;;10.73;7.67;;;13.00;99.90;12.40;100772;;;;560488;249;24182;-79
2023/05/25 00:49:47;;;;;;;13.00;7.80;;;13.10;99.90;12.50;100777;;;;570508;247;24158;-79
2023/05/25 00:52:15;;;;;;;15.57;8.63;;;12.80;99.90;12.50;100771;;;;568453;252;24093;-79
2023/05/25 00:54:43;;;;;;;12.00;7.97;;;13.10;99.90;12.50;100775;;;;569494;248;24127;-79
2023/05/25 00:57:11;;;;;;;15.57;8.70;;;13.30;99.90;12.50;100769;;;;561277;249;24079;-79
2023/05/25 00:59:42;;;;;;;11.30;8.30;;;12.40;99.90;12.50;100773;;;;582800;242;24024;-78
2023/05/25 01:02:14;;;;;;;12.23;8.87;;;13.10;99.90;12.50;100777;;;;566191;249;24082;-79
2023/05/25 01:04:39;;;;;;;12.13;8.43;;;12.80;99.90;12.50;100776;;;;583570;242;24101;-80
2023/05/25 01:07:07;;;;;;;16.23;9.33;;;12.80;99.90;12.40;100777;;;;566770;249;24075;-79
2023/05/25 01:09:35;;;;;;;17.43;9.53;;;12.80;99.90;12.40;100779;;;;583751;242;24042;-79
2023/05/25 01:12:03;;;;;;;17.13;10.77;;;13.00;99.90;12.40;100776;;;;566460;249;24088;-80
2023/05/25 01:14:31;;;;;;;17.10;9.50;;;13.10;99.90;12.30;100773;;;;583547;242;24136;-79
2023/05/25 01:16:59;;;;;;;11.07;8.13;;;13.00;99.90;12.30;100778;;;;565984;249;24069;-78
2023/05/25 01:19:28;;;;;;;21.47;10.77;;;12.90;99.90;12.20;100769;;;;583233;242;24086;-80
2023/05/25 01:22:04;;;;;;;19.00;8.57;;;12.60;99.90;12.20;100771;;;;585601;241;24020;-80
2023/05/25 01:24:41;;;;;;;15.30;7.53;;;12.70;99.90;12.10;100768;;;;585154;242;24079;-79
2023/05/25 01:27:09;;;;;;;15.80;10.80;;;12.50;99.90;12.10;100766;;;;585027;242;24030;-80
2023/05/25 01:29:37;;;;;;;23.43;14.90;;;12.80;99.90;12.10;100764;;;;580054;242;34992;-78
2023/05/25 01:32:05;;;;;;;19.63;11.23;;;12.70;99.90;12.10;100773;;;;584979;242;24078;-78
2023/05/25 01:34:33;;;;;;;15.33;9.63;;;12.60;99.90;12.00;100783;;;;585164;242;24023;-79
2023/05/25 01:37:01;;;;;;;17.63;9.80;;;12.40;99.90;12.00;100770;;;;585091;242;24018;-80
2023/05/25 01:39:29;;;;;;;15.33;9.70;;;12.40;99.90;11.90;100765;;;;585175;242;24027;-80
2023/05/25 01:41:57;;;;;;;19.80;10.07;;;12.70;99.90;11.90;100781;;;;585479;241;24008;-79
2023/05/25 01:44:28;;;;;;;17.97;11.10;;;12.50;99.90;11.80;100778;;;;583275;242;24091;-80
2023/05/25 01:47:15;;;;;;;20.03;11.00;;;12.50;99.90;11.80;100775;;;;582944;242;25067;-78
2023/05/25 01:50:22;;;;;;;14.13;8.83;;;12.60;99.90;11.80;100771;;;;582796;242;24028;-78
2023/05/25 01:53:14;;;;;;;17.70;8.53;;;13.00;99.90;11.80;100785;;;;583099;242;24047;-78
2023/05/25 01:55:42;;;;;;;13.77;8.70;;;12.10;99.90;11.70;100783;;;;583276;242;24108;-79
2023/05/25 01:58:10;;;;;;;17.10;10.33;;;12.10;99.90;11.70;100781;;;;582656;241;24019;-80
2023/05/25 02:00:38;;;;;;;14.37;9.17;;;12.70;99.90;11.70;100785;;;;583249;242;24072;-79
2023/05/25 02:03:08;;;;;;;16.17;9.77;;;11.70;99.90;11.70;100790;;;;583383;242;24098;-78
2023/05/25 02:05:34;;;;;;;15.43;8.17;;;12.50;99.90;11.70;100789;;;;583004;242;25094;-79
2023/05/25 02:08:01;;;;;;;16.57;9.97;;;12.40;99.90;11.70;100789;;;;583284;242;25070;-78
2023/05/25 02:10:29;;;;;;;20.13;11.73;;;12.40;99.90;11.70;100788;;;;583327;242;25072;-79
2023/05/25 02:12:58;;;;;;;16.63;9.70;;;11.80;99.90;11.70;100782;;;;583461;242;24093;-79
2023/05/25 02:15:26;;;;;;;14.77;10.00;;;12.20;99.90;11.60;100786;;;;583677;240;24067;-79
2023/05/25 02:17:56;;;;;;;17.60;10.73;;;12.40;99.90;11.60;100792;;;;584324;242;24039;-79
2023/05/25 02:20:26;;;;;;;17.67;10.50;;;12.10;99.90;11.60;100780;;;;583957;242;24034;-79
2023/05/25 02:22:51;;;;;;;18.80;10.37;;;12.20;99.90;11.60;100797;;;;583551;242;24082;-79
2023/05/25 02:25:20;;;;;;;18.67;10.60;;;12.20;99.90;11.60;100783;;;;584087;241;24032;-79
2023/05/25 02:27:49;;;;;;;21.00;10.00;;;12.20;99.90;11.50;100781;;;;583856;242;24041;-78
2023/05/25 02:30:17;;;;;;;20.03;11.20;;;12.20;99.90;11.50;100774;;;;583807;236;24015;-78
2023/05/25 02:32:46;;;;;;;19.07;11.27;;;12.20;99.90;11.50;100773;;;;583868;242;24024;-79
2023/05/25 02:35:15;;;;;;;14.10;9.30;;;12.10;99.90;11.50;100773;;;;576833;245;24123;-79
2023/05/25 02:37:43;;;;;;;17.30;9.57;;;12.10;99.90;11.50;100775;;;;583517;242;24136;-79
2023/05/25 02:40:15;;;;;;;17.00;10.53;;;12.30;99.90;11.40;100784;;;;585743;241;24012;-78
2023/05/25 02:42:42;;;;;;;19.57;9.93;;;12.10;99.90;11.50;100783;;;;584790;242;24023;-79
2023/05/25 02:45:09;;;;;;;22.67;10.37;;;12.10;99.90;11.40;100772;;;;584943;242;24068;-79
2023/05/25 02:47:37;;;;;;;16.27;10.53;;;12.10;99.90;11.50;100781;;;;585157;242;24018;-79
2023/05/25 02:50:09;;;;;;;17.60;10.40;;;12.10;99.90;11.40;100787;;;;576747;245;24053;-79
2023/05/25 02:52:33;;;;;;;16.70;9.23;;;12.00;99.90;11.40;100791;;;;583020;242;25147;-79
2023/05/25 02:55:02;;;;;;;25.27;10.13;;;12.00;99.90;11.40;100785;;;;585581;241;24012;-80
2023/05/25 02:57:29;;;;;;;16.17;11.03;;;12.10;99.90;11.40;100787;;;;584937;242;24077;-79
2023/05/25 02:59:57;;;;;;;16.00;8.83;;;12.20;99.90;11.50;100784;;;;584615;242;24131;-78
2023/05/25 03:02:25;;;;;;;25.37;11.50;;;12.30;99.90;11.50;100776;;;;584557;242;24021;-78
2023/05/25 03:04:53;;;;;;;17.10;9.87;;;12.10;99.90;11.50;100771;;;;584598;242;24026;-79
2023/05/25 03:07:25;;;;;;;16.07;10.10;;;12.50;99.90;11.50;100770;;;;584559;242;24016;-79
2023/05/25 03:09:50;;;;;;;17.67;10.20;;;12.10;99.90;11.50;100780;;;;584338;242;24038;-79
2023/05/25 03:12:17;;;;;;;16.87;9.33;;;12.20;99.90;11.50;100767;;;;584484;242;24031;-79
2023/05/25 03:14:46;;;;;;;18.00;10.67;;;12.10;99.90;11.50;100772;;;;580034;242;24102;-79
2023/05/25 03:17:14;;;;;;;16.60;9.40;;;12.20;99.90;11.50;100775;;;;584581;242;24082;-78
2023/05/25 03:19:42;;;;;;;21.07;8.70;;;12.00;99.90;11.50;100777;;;;584588;240;24015;-79
2023/05/25 03:22:10;;;;;;;18.40;10.07;;;12.20;99.90;11.60;100774;;;;584528;242;24030;-78
2023/05/25 03:24:41;;;;;;;18.67;10.40;;;12.30;99.90;11.60;100772;;;;585474;241;24066;-79
2023/05/25 03:27:09;;;;;;;16.37;10.43;;;12.00;99.90;11.60;100780;;;;585385;240;25116;-79
2023/05/25 03:29:34;;;;;;;20.93;10.40;;;12.90;99.90;11.60;100782;;;;583867;242;24031;-79
2023/05/25 03:32:02;;;;;;;15.60;9.50;;;12.50;99.90;11.70;100781;;;;583802;240;24037;-79
2023/05/25 03:34:33;;;;;;;17.17;10.33;;;12.40;99.90;11.80;100787;;;;583784;241;24019;-79
2023/05/25 03:36:58;;;;;;;20.47;10.73;;;12.10;99.90;11.90;100785;;;;583349;242;24078;-78
2023/05/25 03:39:26;;;;;;;18.73;10.47;;;13.00;99.90;12.30;100780;;;;583553;242;24043;-78
2023/05/25 03:41:54;;;;;;;19.37;11.07;;;13.40;99.90;12.90;100785;;;;583479;240;24100;-78
2023/05/25 03:44:22;;;;;;;25.40;11.13;;;13.90;99.90;13.40;100786;;;;583245;241;24111;-79
2023/05/25 03:46:50;;;;;;;15.93;9.13;;;14.70;99.90;13.90;100789;;;;583202;242;24031;-80
2023/05/25 03:49:18;;;;;;;21.17;9.87;;;15.00;99.90;14.50;100793;;;;583089;236;24069;-79
2023/05/25 03:51:46;;;;;;;18.80;10.00;;;16.30;99.90;14.90;100792;;;;583269;242;24031;-79
2023/05/25 03:54:14;;;;;;;15.57;9.37;;;15.80;99.90;15.30;100790;;;;583613;242;24056;-79
2023/05/25 03:56:42;;;;;;;17.83;10.73;;;16.20;99.90;15.80;100799;;;;577922;242;34974;-79
2023/05/25 03:59:09;;;;;;;17.40;9.40;;;16.90;99.90;16.20;100794;;;;583117;242;24039;-79
2023/05/25 04:01:38;;;;;;;16.43;8.53;;;17.40;99.90;16.60;100789;;;;583053;242;24060;-79
2023/05/25 04:04:06;;;;;;;14.93;8.23;;;17.70;99.90;17.10;100791;;;;582913;241;24068;-79
2023/05/25 04:06:39;;;;;;;17.17;9.40;;;18.10;99.90;17.50;100789;;;;582837;242;24043;-80
2023/05/25 04:09:06;;;;;;;12.00;7.93;;;18.60;99.90;17.80;100785;;;;582596;242;24079;-80
2023/05/25 04:11:34;;;;;;;12.70;8.63;;;18.40;99.90;18.10;100783;;;;582822;241;24024;-79
2023/05/25 04:14:02;;;;;;;11.77;7.37;;;19.10;99.90;18.60;100782;;;;582840;242;23073;-80
2023/05/25 04:16:30;;;;;;;17.73;8.60;;;20.70;99.90;19.20;100784;;;;582846;242;24109;-80
2023/05/25 04:18:58;;;;;;;14.80;9.27;;;20.30;99.90;19.80;100792;;;;582791;242;24024;-78
2023/05/25 04:21:26;;;;;;;12.83;7.87;;;20.90;99.90;20.30;100794;;;;582981;242;24017;-78
2023/05/25 04:23:55;;;;;;;17.80;8.50;;;21.50;99.90;20.80;100802;;;;582878;242;24017;-80
2023/05/25 04:26:25;;;;;;;13.47;8.40;;;22.40;99.90;21.30;100799;;;;583248;241;24046;-79
2023/05/25 04:28:54;;;;;;;13.47;8.03;;;22.60;99.90;21.80;100802;;;;583324;242;24065;-80
2023/05/25 04:31:22;;;;;;;13.67;8.13;;;23.10;99.90;22.20;100813;;;;582928;236;24129;-80
2023/05/25 04:33:48;;;;;;;11.33;7.60;;;23.60;99.90;22.80;100813;;;;582981;242;24068;-80
2023/05/25 04:36:15;;;;;;;10.27;8.17;;;24.20;99.90;23.30;100808;;;;583264;241;24064;-78
2023/05/25 04:38:46;;;;;;;12.27;8.00;;;24.80;99.90;23.90;100811;;;;583796;240;24056;-78
2023/05/25 04:41:11;;;;;;;12.10;8.53;;;25.60;98.60;24.80;100814;;;;584502;240;24053;-79
2023/05/25 04:43:40;;;;;;;13.00;8.30;;;26.10;95.80;25.10;100818;;;;584314;242;23049;-79
2023/05/25 04:46:07;;;;;;;17.70;8.10;;;26.30;94.20;25.30;100814;;;;584162;242;23017;-81
2023/05/25 04:48:37;;;;;;;13.23;7.87;;;26.50;93.00;25.40;100814;;;;593729;236;24028;-81
2023/05/25 04:51:03;;;;;;;9.97;7.60;;;26.90;92.20;25.70;100819;;;;593520;242;23041;-78
2023/05/25 04:53:31;;;;;;;14.00;7.97;;;27.10;91.30;26.10;100821;;;;593622;236;23046;-78
2023/05/25 04:55:59;;;;;;;19.17;7.93;;;27.50;90.40;26.70;100818;;;;593336;241;23096;-79
2023/05/25 04:58:32;;;;;;;14.85;7.12;;;28.00;86.10;27.10;100821;;;;592932;241;23057;-78
2023/05/25 05:00:57;;;;;;;7.70;6.53;;;28.10;86.50;27.30;100813;;;;592609;242;23061;-78
2023/05/25 05:03:26;;;;;;;12.02;7.18;;;28.50;83.10;27.40;100814;;;;592838;241;23056;-78
2023/05/25 05:05:54;;;;;;;8.73;6.60;;;28.90;80.00;27.90;100819;;;;592916;241;24054;-79
2023/05/25 05:08:22;;;;;;;16.70;6.62;;;29.20;78.50;28.30;100830;;;;593294;241;23050;-79
2023/05/25 05:10:51;;;;;;;16.67;7.55;;;29.50;76.30;28.60;100826;;;;593097;241;24127;-80
2023/05/25 05:13:18;;;;;;;11.77;6.50;;;29.40;76.10;28.70;100830;;;;593430;241;23065;-80
2023/05/25 05:15:46;;;;;;;12.93;6.43;;;29.70;74.80;28.80;100828;;;;592743;241;23062;-79
2023/05/25 05:18:15;;;;;;;17.05;7.80;;;30.20;72.40;29.50;100837;;;;592503;241;23049;-79
2023/05/25 05:20:43;;;;;;;22.62;7.03;;;30.40;70.70;30.00;100837;;;;592615;237;23073;-80
2023/05/25 05:23:11;;;;;;;16.52;6.40;;;30.80;71.40;30.50;100829;;;;592539;241;24174;-80
2023/05/25 05:25:39;;;;;;;12.77;6.93;;;31.50;66.40;31.00;100826;;;;587297;236;34989;-79
2023/05/25 05:28:07;;;;;;;16.05;5.93;;;31.90;65.50;31.10;100835;;;;592952;236;23057;-79
2023/05/25 05:30:34;;;;;;;10.50;5.60;;;32.00;64.40;31.40;100844;;;;592945;241;23102;-79
2023/05/25 05:33:02;;;;;;;7.85;5.57;;;32.80;62.70;32.10;100847;;;;592971;241;23056;-79
2023/05/25 05:35:33;;;;;;;8.35;5.70;;;32.80;61.00;32.00;100845;;;;592498;242;23062;-79
2023/05/25 05:37:59;;;;;;;17.92;6.40;;;33.00;61.20;32.30;100855;;;;592512;242;23050;-79
2023/05/25 05:40:27;;;;;;;9.25;5.22;;;33.00;61.30;33.10;100846;;;;592667;236;23072;-80
2023/05/25 05:42:55;;;;;;;12.30;6.28;;;34.00;58.60;33.30;100846;;;;592746;237;23059;-80
2023/05/25 05:45:23;;;;;;;13.82;6.00;;;34.40;58.20;33.70;100850;;;;592579;241;24106;-80
2023/05/25 05:47:52;;;;;;;9.98;6.25;;;34.70;56.50;34.40;100856;;;;587266;241;35003;-79
2023/05/25 05:50:19;;;;;;;9.60;5.60;;;34.80;57.10;35.00;100862;;;;593079;240;23099;-80
2023/05/25 05:52:47;;;;;;;8.82;5.35;;;35.40;55.30;35.00;100864;;;;593964;240;23056;-80
2023/05/25 05:55:15;;;;;;;7.50;5.12;;;35.60;55.00;35.20;100868;;;;593675;240;23050;-80
2023/05/25 05:57:43;;;;;;;5.18;4.72;;;35.80;54.20;35.60;100873;;;;593752;240;23088;-80
2023/05/25 06:00:11;;;;;;;8.75;5.57;;;36.50;52.30;36.10;100872;;;;593207;240;24114;-80
2023/05/25 06:02:39;;;;;;;20.20;5.37;;;36.80;51.30;36.30;100873;;;;593151;242;23065;-79
2023/05/25 06:05:10;;;;;;;7.43;4.95;;;37.30;51.40;36.90;100878;;;;593340;236;23050;-79
2023/05/25 06:07:36;;;;;;;9.35;5.25;;;37.90;50.30;37.70;100888;;;;593161;236;24105;-80
2023/05/25 06:10:03;;;;;;;5.22;4.40;;;37.90;50.70;38.00;100892;;;;592877;242;23054;-79
2023/05/25 06:12:31;;;;;;;9.18;4.70;;;38.70;48.20;38.20;100894;;;;593378;241;23045;-80
2023/05/25 06:14:58;;;;;;;7.55;5.10;;;38.70;47.60;38.20;100894;;;;592911;237;23057;-80
2023/05/25 06:17:30;;;;;;;12.98;5.37;;;38.70;47.50;38.30;100899;;;;592815;236;23042;-81
2023/05/25 06:19:54;;;;;;;6.90;4.40;;;38.70;48.20;38.60;100904;;;;592746;242;23053;-80
2023/05/25 06:22:26;;;;;;;18.90;5.87;;;39.00;47.50;39.30;100901;;;;592813;241;23068;-80
2023/05/25 06:24:50;;;;;;;10.07;4.85;;;39.60;47.40;39.70;100911;;;;592700;242;23057;-80
2023/05/25 06:27:18;;;;;;;8.02;4.80;;;40.30;45.10;40.00;100909;;;;593019;241;23078;-80
2023/05/25 06:29:46;;;;;;;7.20;5.18;;;40.70;45.00;40.40;100911;;;;592933;241;24094;-80
2023/05/25 06:32:14;;;;;;;6.43;4.90;;;40.70;45.50;41.00;100915;;;;592955;241;23043;-80
2023/05/25 06:34:42;;;;;;;7.35;4.93;;;41.30;44.60;41.10;100917;;;;592950;241;24092;-80
2023/05/25 06:37:10;;;;;;;8.13;4.78;;;41.50;43.80;41.00;100918;;;;592958;241;23055;-80
2023/05/25 06:39:39;;;;;;;10.38;5.12;;;41.60;42.90;41.20;100931;;;;592905;241;23067;-80
2023/05/25 06:42:10;;;;;;;7.22;5.68;;;41.60;43.40;41.20;100932;;;;592947;241;23042;-80
2023/05/25 06:44:34;;;;;;;10.60;4.55;;;41.60;43.30;41.50;100931;;;;592726;237;26227;-81
2023/05/25 06:47:02;;;;;;;14.38;4.68;;;41.80;42.90;41.30;100929;;;;592933;241;23072;-81
2023/05/25 06:49:30;;;;;;;9.10;5.15;;;41.70;43.00;41.80;100932;;;;592943;241;23050;-79
2023/05/25 06:51:57;;;;;;;9.93;4.53;;;42.00;43.10;42.10;100932;;;;592899;236;23046;-80
2023/05/25 06:54:29;;;;;;;17.27;5.32;;;42.70;41.60;42.50;100933;;;;592905;236;24082;-80
2023/05/25 06:56:53;;;;;;;8.57;4.80;;;42.60;42.00;43.00;100935;;;;592565;241;23042;-80
2023/05/25 06:59:22;;;;;;;6.80;4.65;;;42.90;41.30;42.60;100937;;;;592462;236;23072;-80
2023/05/25 07:01:50;;;;;;;5.70;4.43;;;42.90;40.60;42.50;100938;;;;593301;240;23051;-80
2023/05/25 07:04:18;;;;;;;9.38;5.03;;;42.80;40.80;42.00;100941;;;;594329;240;23088;-80
2023/05/25 07:06:47;;;;;;;8.25;4.30;;;42.40;40.70;41.70;100937;;;;593962;240;23037;-79
2023/05/25 07:09:14;;;;;;;7.43;4.30;;;42.10;41.20;41.90;100942;;;;593753;241;24105;-80
2023/05/25 07:11:42;;;;;;;4.97;4.50;;;42.10;41.20;42.00;100945;;;;593631;240;23095;-79
2023/05/25 07:14:10;;;;;;;10.07;4.47;;;42.10;40.60;41.90;100943;;;;593162;236;23065;-79
2023/05/25 07:16:39;;;;;;;9.00;4.35;;;42.40;41.80;42.30;100943;;;;592906;241;24129;-80
2023/05/25 07:19:06;;;;;;;16.90;4.75;;;42.90;40.30;42.90;100946;;;;593149;241;23110;-80
2023/05/25 07:21:35;;;;;;;10.05;4.87;;;42.90;40.70;42.50;100946;;;;592786;241;23050;-79
2023/05/25 07:24:03;;;;;;;20.20;5.25;;;42.30;40.10;42.20;100957;;;;592907;241;23089;-81
2023/05/25 07:26:34;;;;;;;6.57;4.40;;;42.20;39.80;41.90;100943;;;;592742;236;23068;-79
2023/05/25 07:28:59;;;;;;;9.05;4.43;;;42.20;40.30;42.00;100954;;;;592588;242;23055;-80
2023/05/25 07:31:27;;;;;;;6.07;4.93;;;42.50;40.30;42.40;100962;;;;593163;241;23044;-80
2023/05/25 07:33:55;;;;;;;37.58;7.87;;;42.50;40.40;42.50;100960;;;;593192;241;23074;-80
2023/05/25 07:36:23;;;;;;;13.57;4.90;;;42.70;39.70;42.40;100960;;;;593238;236;23048;-81
2023/05/25 07:38:52;;;;;;;7.37;4.80;;;43.10;40.10;43.10;100963;;;;593051;241;23079;-80
2023/05/25 07:41:20;;;;;;;10.60;4.85;;;43.10;40.10;43.50;100970;;;;592414;236;24135;-80
2023/05/25 07:43:48;;;;;;;6.70;4.12;;;43.60;39.20;43.50;100969;;;;592582;241;23058;-81
2023/05/25 07:46:16;;;;;;;6.62;4.18;;;44.00;38.60;43.70;100972;;;;592450;236;23068;-80
2023/05/25 07:48:44;;;;;;;10.30;4.85;;;43.90;38.50;44.10;100976;;;;592568;241;23092;-80
2023/05/25 07:51:12;;;;;;;9.23;3.97;;;44.60;37.90;44.50;100985;;;;592477;241;23063;-81
2023/05/25 07:53:41;;;;;;;12.02;4.97;;;44.70;38.50;45.10;100989;;;;592642;241;23054;-81
2023/05/25 07:56:09;;;;;;;28.70;6.07;;;45.50;37.30;45.30;100986;;;;592528;241;23040;-81
2023/05/25 07:58:37;;;;;;;26.08;6.10;;;45.50;37.20;45.00;100985;;;;592395;241;23155;-81
2023/05/25 08:01:05;;;;;;;28.95;7.05;;;45.30;37.30;44.90;100986;;;;592929;241;23093;-81
2023/05/25 08:03:33;;;;;;;29.52;6.10;;;45.20;37.20;45.00;100978;;;;592943;236;23078;-80
2023/05/25 08:06:01;;;;;;;12.82;4.50;;;45.20;37.20;44.90;100990;;;;592924;241;23062;-80
2023/05/25 08:08:30;;;;;;;9.30;4.80;;;45.10;37.10;44.70;100986;;;;592504;236;23090;-79
2023/05/25 08:10:57;;;;;;;6.32;4.18;;;44.90;37.20;44.60;100993;;;;592632;241;23050;-80
2023/05/25 08:13:25;;;;;;;9.20;4.45;;;45.00;37.70;45.10;100991;;;;592958;240;24092;-80
2023/05/25 08:15:53;;;;;;;7.90;4.28;;;45.30;37.50;45.20;100993;;;;593889;240;23087;-80
2023/05/25 08:18:21;;;;;;;7.78;3.90;;;45.40;36.70;45.40;100998;;;;593605;236;23076;-80
2023/05/25 08:20:48;;;;;;;19.02;5.37;;;45.80;36.20;45.40;101011;;;;593250;242;23087;-80
2023/05/25 08:23:17;;;;;;;11.30;5.00;;;45.60;37.10;45.10;101007;;;;593333;236;24070;-80
2023/05/25 08:25:45;;;;;;;30.27;6.30;;;45.50;36.60;44.80;101016;;;;593105;241;23050;-80
2023/05/25 08:28:13;;;;;;;10.00;4.20;;;45.40;37.10;43.60;101016;;;;593010;237;23089;-80
2023/05/25 08:30:42;;;;;;;5.82;4.72;;;44.50;36.80;42.00;101016;;;;593166;241;23042;-80
2023/05/25 08:33:09;;;;;;;9.18;4.60;;;43.00;38.00;41.20;101015;;;;593142;242;23032;-81
2023/05/25 08:35:41;;;;;;;9.82;5.82;;;42.00;39.20;40.60;101010;;;;592734;241;24086;-80
2023/05/25 08:38:07;;;;;;;11.50;5.60;;;40.70;40.20;40.20;101012;;;;592701;241;23072;-80
2023/05/25 08:40:39;;;;;;;25.52;5.95;;;40.70;40.40;40.30;101014;;;;592930;241;23062;-80
2023/05/25 08:43:03;;;;;;;6.87;4.32;;;40.60;40.80;40.10;101009;;;;592372;242;23046;-81
2023/05/25 08:45:31;;;;;;;7.22;4.10;;;40.50;40.50;40.30;101011;;;;592728;241;23049;-81
2023/05/25 08:47:59;;;;;;;9.73;4.30;;;40.90;40.40;40.70;101007;;;;592877;241;23049;-81
2023/05/25 08:50:27;;;;;;;12.37;4.78;;;41.70;40.10;41.60;101022;;;;592609;241;23061;-80
2023/05/25 08:52:55;;;;;;;6.68;4.22;;;41.60;40.00;41.70;101022;;;;592552;236;23062;-81
2023/05/25 08:55:23;;;;;;;7.03;4.65;;;42.00;39.10;41.70;101020;;;;592485;241;23058;-80
2023/05/25 08:57:54;;;;;;;13.57;4.60;;;41.80;39.30;41.00;101022;;;;592501;241;23030;-80
2023/05/25 09:00:28;;;;;;;14.98;4.78;;;40.90;39.10;39.80;101027;;;;591968;242;24094;-79
2023/05/25 09:03:14;;;;;;;16.30;5.12;;;39.90;40.30;39.00;101018;;;;592751;242;23038;-80
2023/05/25 09:05:46;;;;;;;18.17;4.70;;;39.20;42.00;38.60;101023;;;;592444;236;23053;-79
2023/05/25 09:08:10;;;;;;;22.37;4.55;;;38.80;41.80;38.30;101027;;;;592530;242;23033;-80
2023/05/25 09:10:42;;;;;;;17.52;5.03;;;38.70;42.40;38.30;101032;;;;592921;236;23067;-80
2023/05/25 09:13:09;;;;;;;6.90;4.10;;;38.50;41.90;38.10;101034;;;;592634;242;24080;-80
2023/05/25 09:15:35;;;;;;;7.25;3.92;;;38.10;41.80;37.70;101042;;;;592675;242;23060;-80
2023/05/25 09:18:03;;;;;;;9.80;4.40;;;38.00;42.40;37.70;101039;;;;587771;236;35111;-80
2023/05/25 09:20:31;;;;;;;9.05;3.78;;;38.20;43.20;37.60;101036;;;;592921;241;23054;-81
2023/05/25 09:23:02;;;;;;;7.32;3.70;;;38.20;42.80;37.40;101032;;;;592927;241;24126;-80
2023/05/25 09:25:27;;;;;;;20.02;5.00;;;38.00;43.40;37.70;101027;;;;593243;240;23052;-81
2023/05/25 09:27:57;;;;;;;10.85;4.37;;;38.00;43.90;37.90;101026;;;;593837;240;23112;-80
2023/05/25 09:30:26;;;;;;;26.75;5.60;;;38.20;43.20;37.50;101032;;;;593220;235;23054;-80
2023/05/25 09:32:51;;;;;;;41.28;6.32;;;38.10;43.70;36.50;101027;;;;593038;241;24093;-80
2023/05/25 09:35:22;;;;;;;21.42;5.12;;;36.10;44.40;35.30;101031;;;;593558;240;23049;-80
2023/05/25 09:37:47;;;;;;;16.30;4.78;;;35.30;45.70;34.60;101024;;;;593062;236;23056;-80
2023/05/25 09:40:15;;;;;;;6.57;3.90;;;34.50;47.10;33.90;101026;;;;593422;236;23046;-79
2023/05/25 09:42:46;;;;;;;8.13;3.90;;;34.60;47.30;34.30;101032;;;;593512;236;23071;-79
2023/05/25 09:45:11;;;;;;;4.03;3.62;;;34.60;47.80;34.30;101021;;;;592886;242;23064;-81
2023/05/25 09:47:39;;;;;;;13.10;4.60;;;34.40;48.20;34.10;101020;;;;593045;236;23052;-80
2023/05/25 09:50:08;;;;;;;11.00;4.22;;;34.40;47.50;34.00;101022;;;;593020;241;23056;-79
2023/05/25 09:52:39;;;;;;;23.80;5.25;;;34.40;48.70;34.70;101030;;;;592623;241;24079;-80
2023/05/25 09:55:04;;;;;;;8.95;4.20;;;34.90;48.20;35.10;101022;;;;592727;242;23044;-79
2023/05/25 09:57:32;;;;;;;13.20;5.65;;;35.80;46.50;35.40;101021;;;;592510;242;23067;-79
2023/05/25 10:00:04;;;;;;;8.95;4.25;;;35.80;46.50;36.50;101016;;;;592438;236;23061;-80
2023/05/25 10:02:28;;;;;;;12.57;4.60;;;36.90;45.20;37.30;101023;;;;592249;242;23046;-81
2023/05/25 10:04:57;;;;;;;7.65;4.37;;;38.90;44.30;38.40;101031;;;;592664;236;23097;-80
2023/05/25 10:07:28;;;;;;;13.65;5.15;;;39.80;42.00;39.20;101027;;;;592880;241;23062;-82
2023/05/25 10:09:53;;;;;;;6.95;5.07;;;39.80;41.60;38.80;101016;;;;592572;236;23046;-80
2023/05/25 10:12:20;;;;;;;7.75;4.75;;;40.30;41.90;39.40;101022;;;;587586;241;35024;-80
2023/05/25 10:14:48;;;;;;;9.80;4.87;;;40.20;42.30;39.60;101013;;;;592822;236;23042;-81
2023/05/25 10:17:16;;;;;;;10.45;4.82;;;40.70;40.90;39.90;101025;;;;592263;241;23097;-81
2023/05/25 10:19:56;;;;;;;14.20;6.25;;;40.70;41.70;40.00;101023;;;;591988;242;23127;-81
2023/05/25 10:22:38;;;;;;;12.40;5.68;;;40.80;40.60;39.60;101024;;;;592285;241;23047;-80
2023/05/25 10:25:22;;;;;;;10.73;5.05;;;40.80;41.10;39.20;101023;;;;592197;241;23054;-80
2023/05/25 10:28:02;;;;;;;10.52;5.20;;;40.40;41.80;39.30;101028;;;;592558;242;23046;-79
2023/05/25 10:30:29;;;;;;;13.13;6.00;;;40.50;41.40;39.40;101021;;;;590488;237;23081;-80
2023/05/25 10:32:57;;;;;;;12.52;5.50;;;40.10;40.70;38.80;101027;;;;592795;236;23043;-81
2023/05/25 10:35:25;;;;;;;18.17;5.82;;;40.10;41.50;37.30;101024;;;;592628;236;23080;-80
2023/05/25 10:37:57;;;;;;;16.70;6.05;;;37.40;42.70;36.20;101030;;;;593940;240;23099;-80
2023/05/25 10:40:22;;;;;;;34.20;6.20;;;36.40;44.50;35.80;101023;;;;593414;239;24059;-80
2023/05/25 10:42:52;;;;;;;14.40;5.93;;;36.20;45.90;35.70;101028;;;;593346;242;23133;-79
2023/05/25 10:45:24;;;;;;;17.35;5.68;;;35.40;45.90;34.70;101031;;;;593336;236;23093;-81
2023/05/25 10:47:49;;;;;;;14.40;5.57;;;34.10;47.20;33.40;101028;;;;592491;242;23089;-80
2023/05/25 10:50:25;;;;;;;19.65;6.47;;;32.80;48.20;32.30;101029;;;;592955;241;23049;-80
2023/05/25 10:53:03;;;;;;;14.50;5.35;;;32.00;50.00;31.50;101020;;;;592728;242;23060;-79
2023/05/25 10:55:48;;;;;;;12.77;5.05;;;31.10;51.00;30.60;101021;;;;592881;242;23081;-80
2023/05/25 10:58:16;;;;;;;7.80;3.95;;;30.00;52.60;29.70;101017;;;;589541;240;24139;-80
2023/05/25 11:01:00;;;;;;;10.38;4.37;;;29.50;54.20;29.10;101018;;;;592757;242;23069;-79
2023/05/25 11:03:47;;;;;;;9.82;4.97;;;28.80;55.00;28.50;101012;;;;592487;242;24069;-79
2023/05/25 11:06:16;;;;;;;14.95;5.25;;;28.30;56.60;28.20;101011;;;;587681;236;34985;-79
2023/05/25 11:08:51;;;;;;;13.00;4.87;;;28.20;57.00;27.90;101007;;;;592877;242;23047;-79
2023/05/25 11:11:23;;;;;;;13.98;4.90;;;28.00;57.20;27.60;101021;;;;593169;241;23064;-80